createdAt,value
2022-10-24T00:01:19.114Z,17.84
2022-10-24T00:03:45.923Z,17.80
2022-10-24T00:06:13.466Z,17.80
2022-10-24T00:08:42.689Z,17.80
2022-10-24T00:11:16.507Z,17.80
2022-10-24T00:13:43.436Z,17.80
2022-10-24T00:16:11.264Z,17.80
2022-10-24T00:18:38.590Z,17.80
2022-10-24T00:21:06.045Z,17.72
2022-10-24T00:23:32.733Z,17.70
2022-10-24T00:26:04.009Z,17.70
2022-10-24T00:28:33.720Z,17.70
2022-10-24T00:31:01.275Z,17.60
2022-10-24T00:33:28.378Z,17.60
2022-10-24T00:35:54.971Z,17.58
2022-10-24T00:38:21.968Z,17.50
2022-10-24T00:40:48.669Z,17.50
2022-10-24T00:43:26.843Z,17.42
2022-10-24T00:45:56.700Z,17.40
2022-10-24T00:48:40.162Z,17.30
2022-10-24T00:51:19.292Z,17.20
2022-10-24T00:53:51.048Z,17.10
2022-10-24T00:56:23.279Z,17.10
2022-10-24T00:58:51.922Z,17.10
2022-10-24T01:01:18.578Z,17.00
2022-10-24T01:03:45.192Z,17.00
2022-10-24T01:06:37.109Z,17.00
2022-10-24T01:09:29.965Z,16.94
2022-10-24T01:12:37.009Z,16.90
2022-10-24T01:15:42.749Z,16.90
2022-10-24T01:18:28.868Z,16.80
2022-10-24T01:21:09.036Z,16.78
2022-10-24T01:23:56.969Z,16.66
2022-10-24T01:26:42.248Z,16.60
2022-10-24T01:29:29.396Z,16.60
2022-10-24T01:32:08.727Z,16.50
2022-10-24T01:34:45.212Z,16.50
2022-10-24T01:37:21.809Z,16.42
2022-10-24T01:39:52.319Z,16.40
2022-10-24T01:42:22.360Z,16.40
2022-10-24T01:44:54.518Z,16.32
2022-10-24T01:47:33.679Z,16.30
2022-10-24T01:50:06.412Z,16.20
2022-10-24T01:52:37.661Z,16.20
2022-10-24T01:55:06.381Z,16.20
2022-10-24T01:57:35.422Z,16.20
2022-10-24T02:00:03.935Z,16.10
2022-10-24T02:02:48.955Z,16.10
2022-10-24T02:05:26.163Z,16.10
2022-10-24T02:07:57.953Z,16.10
2022-10-24T02:10:34.813Z,16.10
2022-10-24T02:13:29.582Z,16.10
2022-10-24T02:16:00.213Z,16.06
2022-10-24T02:18:30.062Z,16.00
2022-10-24T02:21:16.353Z,16.00
2022-10-24T02:24:13.270Z,16.00
2022-10-24T02:26:43.970Z,15.94
2022-10-24T02:29:23.399Z,15.90
2022-10-24T02:31:58.681Z,15.90
2022-10-24T02:34:32.079Z,15.90
2022-10-24T02:37:00.950Z,15.88
2022-10-24T02:39:29.951Z,15.82
2022-10-24T02:41:58.398Z,15.80
2022-10-24T02:44:26.970Z,15.80
2022-10-24T02:46:57.219Z,15.80
2022-10-24T02:49:24.730Z,15.80
2022-10-24T02:51:53.171Z,15.80
2022-10-24T02:54:20.034Z,15.80
2022-10-24T02:56:55.339Z,15.80
2022-10-24T02:59:21.981Z,15.80
2022-10-24T03:01:48.710Z,15.76
2022-10-24T03:04:15.580Z,15.72
2022-10-24T03:06:42.832Z,15.70
2022-10-24T03:09:09.998Z,15.72
2022-10-24T03:11:36.845Z,15.70
2022-10-24T03:14:03.512Z,15.70
2022-10-24T03:16:30.222Z,15.74
2022-10-24T03:18:56.943Z,15.72
2022-10-24T03:21:23.862Z,15.74
2022-10-24T03:23:50.626Z,15.74
2022-10-24T03:26:17.186Z,15.80
2022-10-24T03:28:43.737Z,15.76
2022-10-24T03:31:10.742Z,15.80
2022-10-24T03:33:37.318Z,15.80
2022-10-24T03:36:05.619Z,15.80
2022-10-24T03:38:32.348Z,15.80
2022-10-24T03:40:59.038Z,15.80
2022-10-24T03:43:25.570Z,15.80
2022-10-24T03:45:52.159Z,15.80
2022-10-24T03:48:18.853Z,15.80
2022-10-24T03:50:45.384Z,15.80
2022-10-24T03:53:11.944Z,15.80
2022-10-24T03:55:38.770Z,15.80
2022-10-24T03:58:05.305Z,15.80
2022-10-24T04:00:34.710Z,15.80
2022-10-24T04:03:01.463Z,15.80
2022-10-24T04:05:28.126Z,15.90
2022-10-24T04:07:54.701Z,15.90
2022-10-24T04:10:21.425Z,15.90
2022-10-24T04:12:48.050Z,15.90
2022-10-24T04:15:14.678Z,15.90
2022-10-24T04:17:42.278Z,15.90
2022-10-24T04:20:09.655Z,16.00
2022-10-24T04:22:36.243Z,16.00
2022-10-24T04:25:03.142Z,16.00
2022-10-24T04:27:29.673Z,16.00
2022-10-24T04:29:56.305Z,16.00
2022-10-24T04:32:22.888Z,16.00
2022-10-24T04:34:49.577Z,16.00
2022-10-24T04:37:16.229Z,16.00
2022-10-24T04:39:42.802Z,16.04
2022-10-24T04:42:09.339Z,16.10
2022-10-24T04:44:35.882Z,16.00
2022-10-24T04:47:02.451Z,16.00
2022-10-24T04:49:28.966Z,16.00
2022-10-24T04:51:55.473Z,16.00
2022-10-24T04:54:22.160Z,16.00
2022-10-24T04:56:48.660Z,15.96
2022-10-24T04:59:15.163Z,15.90
2022-10-24T05:01:41.740Z,15.90
2022-10-24T05:04:09.236Z,15.84
2022-10-24T05:06:35.860Z,15.80
2022-10-24T05:09:02.355Z,15.80
2022-10-24T05:11:29.003Z,15.80
2022-10-24T05:13:55.585Z,15.80
2022-10-24T05:16:22.215Z,15.80
2022-10-24T05:18:49.273Z,15.80
2022-10-24T05:21:16.102Z,15.70
2022-10-24T05:23:42.854Z,15.70
2022-10-24T05:26:09.396Z,15.70
2022-10-24T05:28:36.074Z,15.70
2022-10-24T05:31:02.679Z,15.70
2022-10-24T05:33:29.309Z,15.70
2022-10-24T05:35:55.981Z,15.70
2022-10-24T05:38:23.305Z,15.70
2022-10-24T05:40:51.363Z,15.70
2022-10-24T05:43:18.228Z,15.76
2022-10-24T05:45:45.274Z,15.80
2022-10-24T05:48:11.865Z,15.74
2022-10-24T05:50:38.428Z,15.70
2022-10-24T05:53:05.877Z,15.70
2022-10-24T05:55:33.669Z,15.70
2022-10-24T05:58:00.227Z,15.70
2022-10-24T06:00:26.970Z,15.70
2022-10-24T06:02:53.628Z,15.70
2022-10-24T06:05:20.964Z,15.70
2022-10-24T06:07:48.068Z,15.70
2022-10-24T06:10:15.401Z,15.70
2022-10-24T06:12:42.181Z,15.70
2022-10-24T06:15:11.634Z,15.70
2022-10-24T06:17:38.203Z,15.70
2022-10-24T06:20:05.306Z,15.70
2022-10-24T06:22:32.060Z,15.70
2022-10-24T06:24:58.756Z,15.70
2022-10-24T06:27:25.519Z,15.80
2022-10-24T06:29:52.085Z,15.80
2022-10-24T06:32:18.897Z,15.80
2022-10-24T06:34:45.449Z,15.80
2022-10-24T06:37:12.087Z,15.80
2022-10-24T06:39:38.607Z,15.80
2022-10-24T06:42:05.275Z,15.80
2022-10-24T06:44:31.787Z,15.82
2022-10-24T06:46:58.720Z,15.82
2022-10-24T06:49:25.241Z,15.90
2022-10-24T06:51:51.816Z,15.90
2022-10-24T06:54:18.357Z,15.92
2022-10-24T06:56:44.969Z,16.00
2022-10-24T06:59:17.288Z,16.00
2022-10-24T07:01:44.369Z,16.00
2022-10-24T07:04:11.255Z,16.00
2022-10-24T07:06:37.869Z,16.00
2022-10-24T07:09:06.596Z,16.00
2022-10-24T07:11:34.999Z,16.00
2022-10-24T07:14:04.437Z,16.00
2022-10-24T07:16:32.281Z,16.00
2022-10-24T07:18:58.781Z,16.00
2022-10-24T07:21:28.932Z,16.06
2022-10-24T07:23:56.232Z,16.10
2022-10-24T07:26:25.203Z,16.10
2022-10-24T07:28:58.544Z,16.10
2022-10-24T07:31:29.804Z,16.10
2022-10-24T07:33:56.567Z,16.10
2022-10-24T07:36:26.225Z,16.10
2022-10-24T07:38:57.070Z,16.10
2022-10-24T07:41:25.731Z,16.18
2022-10-24T07:43:55.126Z,16.20
2022-10-24T07:46:22.614Z,16.20
2022-10-24T07:48:50.968Z,16.20
2022-10-24T07:51:18.637Z,16.20
2022-10-24T07:53:45.252Z,16.20
2022-10-24T07:56:15.601Z,16.20
2022-10-24T07:58:43.912Z,16.20
2022-10-24T08:01:15.186Z,16.20
2022-10-24T08:03:42.169Z,16.28
2022-10-24T08:06:15.939Z,16.30
2022-10-24T08:08:42.559Z,16.30
2022-10-24T08:11:13.554Z,16.30
2022-10-24T08:13:40.217Z,16.40
2022-10-24T08:16:10.361Z,16.40
2022-10-24T08:18:39.526Z,16.40
2022-10-24T08:21:11.821Z,16.40
2022-10-24T08:23:44.022Z,16.40
2022-10-24T08:26:15.636Z,16.40
2022-10-24T08:28:44.016Z,16.50
2022-10-24T08:31:15.786Z,16.50
2022-10-24T08:33:43.013Z,16.50
2022-10-24T08:36:25.132Z,16.50
2022-10-24T08:38:52.505Z,16.60
2022-10-24T08:42:07.478Z,16.60
2022-10-24T08:44:40.181Z,16.60
2022-10-24T08:47:31.193Z,16.70
2022-10-24T08:50:06.595Z,16.70
2022-10-24T08:53:01.018Z,16.80
2022-10-24T08:55:49.649Z,16.80
2022-10-24T08:58:42.659Z,16.80
2022-10-24T09:01:20.679Z,16.82
2022-10-24T09:03:57.352Z,16.88
2022-10-24T09:06:30.656Z,16.80
2022-10-24T09:09:02.113Z,16.80
2022-10-24T09:11:54.918Z,16.80
2022-10-24T09:14:26.408Z,16.80
2022-10-24T09:17:00.700Z,16.80
2022-10-24T09:19:30.732Z,16.80
2022-10-24T09:21:59.562Z,16.90
2022-10-24T09:24:52.816Z,16.90
2022-10-24T09:27:27.440Z,17.00
2022-10-24T09:29:54.049Z,17.00
2022-10-24T09:32:26.890Z,17.00
2022-10-24T09:34:54.637Z,17.00
2022-10-24T09:37:42.806Z,17.08
2022-10-24T09:40:22.380Z,17.10
2022-10-24T09:43:22.042Z,17.10
2022-10-24T09:45:52.235Z,17.10
2022-10-24T09:48:42.076Z,17.10
2022-10-24T09:51:09.296Z,17.10
2022-10-24T09:54:01.496Z,17.10
2022-10-24T09:56:42.126Z,17.10
2022-10-24T09:59:27.039Z,17.10
2022-10-24T10:01:54.709Z,17.10
2022-10-24T10:04:21.328Z,17.16
2022-10-24T10:06:50.342Z,17.10
2022-10-24T10:09:26.879Z,17.14
2022-10-24T10:12:02.747Z,17.10
2022-10-24T10:14:30.359Z,17.10
2022-10-24T10:17:05.044Z,17.00
2022-10-24T10:19:37.768Z,17.00
2022-10-24T10:22:31.923Z,17.00
2022-10-24T10:25:00.346Z,17.00
2022-10-24T10:27:35.094Z,17.00
2022-10-24T10:30:16.956Z,16.90
2022-10-24T10:32:46.130Z,16.90
2022-10-24T10:35:49.213Z,16.90
2022-10-24T10:38:41.174Z,16.90
2022-10-24T10:41:32.709Z,16.88
2022-10-24T10:44:26.916Z,16.88
2022-10-24T10:47:26.783Z,16.90
2022-10-24T10:49:58.473Z,16.86
2022-10-24T10:52:48.603Z,16.80
2022-10-24T10:55:31.236Z,16.80
2022-10-24T10:58:44.507Z,16.80
2022-10-24T11:01:48.518Z,16.80
2022-10-24T11:04:47.271Z,16.70
2022-10-24T11:07:56.342Z,16.70
2022-10-24T11:10:28.487Z,16.68
2022-10-24T11:12:58.931Z,16.60
2022-10-24T11:15:31.882Z,16.60
2022-10-24T11:18:15.592Z,16.52
2022-10-24T11:20:53.200Z,16.50
2022-10-24T11:24:18.837Z,16.50
2022-10-24T11:26:58.528Z,16.40
2022-10-24T11:29:40.051Z,16.40
2022-10-24T11:32:44.729Z,16.30
2022-10-24T11:35:53.722Z,16.30
2022-10-24T11:38:23.434Z,16.30
2022-10-24T11:41:12.932Z,16.30
2022-10-24T11:43:41.258Z,16.30
2022-10-24T11:46:22.797Z,16.30
2022-10-24T11:49:03.437Z,16.20
2022-10-24T11:51:43.908Z,16.20
2022-10-24T11:54:30.091Z,16.20
2022-10-24T11:57:09.405Z,16.20
2022-10-24T11:59:39.661Z,16.10
2022-10-24T12:02:53.849Z,16.10
2022-10-24T12:05:52.986Z,16.10
2022-10-24T12:08:53.615Z,16.00
2022-10-24T12:11:31.685Z,16.00
2022-10-24T12:14:26.596Z,15.98
2022-10-24T12:17:21.137Z,15.90
2022-10-24T12:19:50.632Z,15.90
2022-10-24T12:22:23.837Z,15.90
2022-10-24T12:25:05.677Z,15.90
2022-10-24T12:27:40.043Z,15.90
2022-10-24T12:30:09.606Z,15.90
2022-10-24T12:32:49.590Z,15.90
2022-10-24T12:35:31.935Z,15.90
2022-10-24T12:38:00.675Z,15.90
2022-10-24T12:40:45.854Z,15.80
2022-10-24T12:43:35.425Z,15.82
2022-10-24T12:46:24.314Z,15.82
2022-10-24T12:48:56.662Z,15.80
2022-10-24T12:51:34.370Z,15.80
2022-10-24T12:54:13.073Z,15.80
2022-10-24T12:56:52.131Z,15.80
2022-10-24T12:59:46.069Z,15.80
2022-10-24T13:02:15.671Z,15.80
2022-10-24T13:05:15.284Z,15.88
2022-10-24T13:08:21.723Z,15.90
2022-10-24T13:11:19.606Z,15.90
2022-10-24T13:14:36.428Z,15.90
2022-10-24T13:17:22.234Z,15.90
2022-10-24T13:20:26.935Z,15.90
2022-10-24T13:23:14.011Z,15.90
2022-10-24T13:25:41.835Z,15.80
2022-10-24T13:28:19.670Z,15.88
2022-10-24T13:30:59.591Z,15.90
2022-10-24T13:33:32.447Z,15.90
2022-10-24T13:36:24.236Z,15.90
2022-10-24T13:39:00.200Z,15.84
2022-10-24T13:41:48.684Z,15.80
2022-10-24T13:44:48.396Z,15.80
2022-10-24T13:47:36.692Z,15.80
2022-10-24T13:50:19.123Z,15.80
2022-10-24T13:52:54.778Z,15.74
2022-10-24T13:55:47.974Z,15.70
2022-10-24T13:58:24.690Z,15.70
2022-10-24T14:01:06.260Z,15.70
2022-10-24T14:03:34.620Z,15.70
2022-10-24T14:06:08.457Z,15.70
2022-10-24T14:08:45.093Z,15.62
2022-10-24T14:11:23.641Z,15.60
2022-10-24T14:13:59.588Z,15.50
2022-10-24T14:16:33.419Z,15.50
2022-10-24T14:19:29.652Z,15.40
2022-10-24T14:21:58.339Z,15.40
2022-10-24T14:24:25.554Z,15.40
2022-10-24T14:26:54.144Z,15.34
2022-10-24T14:29:32.526Z,15.30
2022-10-24T14:32:02.982Z,15.30
2022-10-24T14:34:35.359Z,15.28
2022-10-24T14:37:11.613Z,15.20
2022-10-24T14:39:39.998Z,15.20
2022-10-24T14:42:15.704Z,15.20
2022-10-24T14:44:46.379Z,15.20
2022-10-24T14:47:34.113Z,15.20
2022-10-24T14:50:01.169Z,15.18
2022-10-24T14:52:37.267Z,15.10
2022-10-24T14:55:20.781Z,15.10
2022-10-24T14:57:52.697Z,15.10
2022-10-24T15:00:25.812Z,15.10
2022-10-24T15:02:56.855Z,15.10
2022-10-24T15:05:31.025Z,15.00
2022-10-24T15:08:28.137Z,15.00
2022-10-24T15:11:16.241Z,15.00
2022-10-24T15:14:05.214Z,15.00
2022-10-24T15:16:39.658Z,15.00
2022-10-24T15:19:13.549Z,15.00
2022-10-24T15:21:46.220Z,15.00
2022-10-24T15:24:25.707Z,15.00
2022-10-24T15:26:54.467Z,15.00
2022-10-24T15:29:23.197Z,15.00
2022-10-24T15:31:52.150Z,15.00
2022-10-24T15:34:22.678Z,15.00
2022-10-24T15:36:52.329Z,15.00
2022-10-24T15:39:24.258Z,15.00
2022-10-24T15:41:51.160Z,14.90
2022-10-24T15:44:26.674Z,14.90
2022-10-24T15:46:54.823Z,14.90
2022-10-24T15:49:21.654Z,14.80
2022-10-24T15:51:50.953Z,14.80
2022-10-24T15:54:21.051Z,14.80
2022-10-24T15:56:48.663Z,14.76
2022-10-24T15:59:15.598Z,14.80
2022-10-24T16:01:50.834Z,14.78
2022-10-24T16:04:18.486Z,14.74
2022-10-24T16:06:45.097Z,14.70
2022-10-24T16:09:19.140Z,14.70
2022-10-24T16:11:45.927Z,14.70
2022-10-24T16:14:20.107Z,14.70
2022-10-24T16:16:47.255Z,14.70
2022-10-24T16:19:14.091Z,14.64
2022-10-24T16:21:41.906Z,14.60
2022-10-24T16:24:10.374Z,14.60
2022-10-24T16:26:37.416Z,14.60
2022-10-24T16:29:05.181Z,14.62
2022-10-24T16:31:32.948Z,14.60
2022-10-24T16:34:00.069Z,14.60
2022-10-24T16:36:27.393Z,14.60
2022-10-24T16:38:54.520Z,14.60
2022-10-24T16:41:25.150Z,14.60
2022-10-24T16:43:56.728Z,14.60
2022-10-24T16:46:25.969Z,14.60
2022-10-24T16:48:53.216Z,14.60
2022-10-24T16:51:25.372Z,14.60
2022-10-24T16:53:52.009Z,14.60
2022-10-24T16:56:18.645Z,14.60
2022-10-24T16:58:45.340Z,14.60
2022-10-24T17:01:15.070Z,14.60
2022-10-24T17:03:45.038Z,14.60
2022-10-24T17:06:12.323Z,14.60
2022-10-24T17:08:39.062Z,14.60
2022-10-24T17:11:20.232Z,14.60
2022-10-24T17:13:52.568Z,14.60
2022-10-24T17:16:20.870Z,14.60
2022-10-24T17:19:04.701Z,14.60
2022-10-24T17:21:33.391Z,14.60
2022-10-24T17:24:00.199Z,14.60
2022-10-24T17:26:27.942Z,14.60
2022-10-24T17:28:54.606Z,14.60
2022-10-24T17:31:21.323Z,14.54
2022-10-24T17:33:48.147Z,14.60
2022-10-24T17:36:30.226Z,14.60
2022-10-24T17:39:10.390Z,14.52
2022-10-24T17:41:40.632Z,14.54
2022-10-24T17:44:16.490Z,14.50
2022-10-24T17:46:44.839Z,14.50
2022-10-24T17:49:17.889Z,14.50
2022-10-24T17:51:49.085Z,14.50
2022-10-24T17:54:17.009Z,14.50
2022-10-24T17:56:44.220Z,14.50
2022-10-24T17:59:10.920Z,14.50
2022-10-24T18:01:37.811Z,14.52
2022-10-24T18:04:05.344Z,14.60
2022-10-24T18:06:32.598Z,14.60
2022-10-24T18:08:59.632Z,14.60
2022-10-24T18:11:26.575Z,14.60
2022-10-24T18:13:53.435Z,14.60
2022-10-24T18:16:20.342Z,14.60
2022-10-24T18:18:48.532Z,14.50
2022-10-24T18:21:24.805Z,14.50
2022-10-24T18:23:53.624Z,14.50
2022-10-24T18:26:24.569Z,14.50
2022-10-24T18:28:55.624Z,14.50
2022-10-24T18:31:26.415Z,14.46
2022-10-24T18:33:53.741Z,14.50
2022-10-24T18:36:26.390Z,14.46
2022-10-24T18:38:59.165Z,14.40
2022-10-24T18:41:29.310Z,14.40
2022-10-24T18:43:59.052Z,14.40
2022-10-24T18:46:26.850Z,14.40
2022-10-24T18:48:54.163Z,14.40
2022-10-24T18:51:52.871Z,14.40
2022-10-24T18:54:21.095Z,14.40
2022-10-24T18:56:48.059Z,14.30
2022-10-24T18:59:20.993Z,14.30
2022-10-24T19:02:24.989Z,14.30
2022-10-24T19:05:16.615Z,14.30
2022-10-24T19:07:45.170Z,14.30
2022-10-24T19:10:22.011Z,14.30
2022-10-24T19:12:48.990Z,14.30
2022-10-24T19:15:18.592Z,14.32
2022-10-24T19:17:46.913Z,14.36
2022-10-24T19:20:20.716Z,14.32
2022-10-24T19:22:47.827Z,14.30
2022-10-24T19:25:16.301Z,14.30
2022-10-24T19:27:43.470Z,14.30
2022-10-24T19:30:11.192Z,14.30
2022-10-24T19:32:37.872Z,14.30
2022-10-24T19:35:05.107Z,14.30
2022-10-24T19:37:31.828Z,14.30
2022-10-24T19:39:58.380Z,14.30
2022-10-24T19:42:25.048Z,14.30
2022-10-24T19:44:54.647Z,14.30
2022-10-24T19:47:22.047Z,14.30
2022-10-24T19:49:49.547Z,14.30
2022-10-24T19:52:16.343Z,14.30
2022-10-24T19:54:42.863Z,14.30
2022-10-24T19:57:09.829Z,14.30
2022-10-24T19:59:36.587Z,14.36
2022-10-24T20:02:04.894Z,14.40
2022-10-24T20:04:31.845Z,14.38
2022-10-24T20:06:58.355Z,14.40
2022-10-24T20:09:24.962Z,14.34
2022-10-24T20:11:51.451Z,14.30
2022-10-24T20:14:18.142Z,14.30
2022-10-24T20:16:44.696Z,14.30
2022-10-24T20:19:11.271Z,14.30
2022-10-24T20:21:38.067Z,14.30
2022-10-24T20:24:05.218Z,14.30
2022-10-24T20:26:32.203Z,14.30
2022-10-24T20:28:58.754Z,14.30
2022-10-24T20:31:34.506Z,14.30
2022-10-24T20:34:08.015Z,14.30
2022-10-24T20:36:37.606Z,14.22
2022-10-24T20:39:08.670Z,14.24
2022-10-24T20:41:36.474Z,14.20
2022-10-24T20:44:04.467Z,14.20
2022-10-24T20:46:31.289Z,14.20
2022-10-24T20:48:57.949Z,14.20
2022-10-24T20:51:24.574Z,14.20
2022-10-24T20:53:51.993Z,14.12
2022-10-24T20:56:22.446Z,14.10
2022-10-24T20:58:51.593Z,14.10
2022-10-24T21:01:23.168Z,14.04
2022-10-24T21:03:52.383Z,14.00
2022-10-24T21:06:24.719Z,14.00
2022-10-24T21:08:54.349Z,14.00
2022-10-24T21:11:28.038Z,14.00
2022-10-24T21:13:58.632Z,14.00
2022-10-24T21:16:26.732Z,14.00
2022-10-24T21:18:54.290Z,14.00
2022-10-24T21:21:22.392Z,14.00
2022-10-24T21:23:55.447Z,14.00
2022-10-24T21:26:22.326Z,14.00
2022-10-24T21:28:48.932Z,14.00
2022-10-24T21:31:18.426Z,13.98
2022-10-24T21:33:45.505Z,14.00
2022-10-24T21:36:15.224Z,13.90
2022-10-24T21:38:46.395Z,13.90
2022-10-24T21:41:12.995Z,13.90
2022-10-24T21:43:42.157Z,13.90
2022-10-24T21:46:22.049Z,13.90
2022-10-24T21:48:51.264Z,13.90
2022-10-24T21:51:28.097Z,13.88
2022-10-24T21:54:08.050Z,13.86
2022-10-24T21:56:39.157Z,13.82
2022-10-24T21:59:13.615Z,13.80
2022-10-24T22:01:41.678Z,13.80
2022-10-24T22:04:08.860Z,13.80
2022-10-24T22:06:36.146Z,13.80
2022-10-24T22:09:06.172Z,13.80
2022-10-24T22:11:35.397Z,13.80
2022-10-24T22:14:03.924Z,13.80
2022-10-24T22:16:32.705Z,13.80
2022-10-24T22:19:05.772Z,13.80
2022-10-24T22:21:39.467Z,13.80
2022-10-24T22:24:13.735Z,13.80
2022-10-24T22:26:41.008Z,13.80
2022-10-24T22:29:10.865Z,13.80
2022-10-24T22:31:38.063Z,13.80
2022-10-24T22:34:05.442Z,13.80
2022-10-24T22:37:02.408Z,13.70
2022-10-24T22:39:29.268Z,13.70
2022-10-24T22:41:56.293Z,13.60
2022-10-24T22:44:23.393Z,13.50
2022-10-24T22:47:26.144Z,13.50
2022-10-24T22:50:11.341Z,13.40
2022-10-24T22:52:38.315Z,13.40
2022-10-24T22:55:17.748Z,13.32
2022-10-24T22:57:44.866Z,13.32
2022-10-24T23:00:12.403Z,13.30
2022-10-24T23:02:45.754Z,13.30
2022-10-24T23:05:36.717Z,13.30
2022-10-24T23:08:09.730Z,13.20
2022-10-24T23:10:39.580Z,13.20
2022-10-24T23:13:06.793Z,13.20
2022-10-24T23:15:33.598Z,13.10
2022-10-24T23:18:00.543Z,13.10
2022-10-24T23:20:43.100Z,13.10
2022-10-24T23:23:28.064Z,13.10
2022-10-24T23:26:24.284Z,13.00
2022-10-24T23:29:09.204Z,13.00
2022-10-24T23:31:36.280Z,13.00
2022-10-24T23:34:03.389Z,12.96
2022-10-24T23:36:30.305Z,12.90
2022-10-24T23:38:57.253Z,12.90
2022-10-24T23:41:24.219Z,12.90
2022-10-24T23:43:51.189Z,12.90
2022-10-24T23:46:38.620Z,12.90
2022-10-24T23:49:23.387Z,12.90
2022-10-24T23:52:02.836Z,12.90
2022-10-24T23:54:33.577Z,12.90
2022-10-24T23:57:01.320Z,12.90
2022-10-24T23:59:28.805Z,12.90
